»·PEaware :: FFT250 KSLC-KYKM

FFT250 :: KSLC-KYKM

FLIGHT INFORMATION

Flight Status: Arrived
Operator:
Frontier Airlines
More flights by this operator :: More flights under this callsign
Pilot: Andrew J. (13363)
Aircraft: AIRBUS A320
(A320)
More flights by this aircraft type
Origin: KSLC Salt Lake City Intl
United States
Destination: KYKM Yakima Air Term/Mcallister
United States
More flights between these airports :: More routes between these airports
Route: TWF4 TWF J15 BOI J54 BKE PDT SUNED
File this flight plan on PilotEdge
Remarks:
Altitude:
(Current/Filed)
36,000ft
Speed:
(Current/Filed)
460kts
Departed: 01-Dec-17 05:22 PM
Arrived: 01-Dec-17 06:53 PM
Distance/Time
Traveled:
508nm/1:31
Distance/Time
To Go:
Arrived

Flight Plot

Page will automatically refresh every two minutes.

Flight plan parsing failed; only flown route is shown


Map Options




Map Legend


Flown Route
Filed Route
Departure Airport
Arrival Airport
Navaid (VOR, NDB)
Fix

Horizontal Profiles

Position Reports

Time Latitude Longitude Heading Altitude Ground
Speed
01-Dec-17 17:07 40.785566 -111.977967 230 4236ft 0kts
01-Dec-17 17:08 40.785566 -111.977967 230 4236ft 0kts
01-Dec-17 17:09 40.785566 -111.977967 230 4236ft 0kts
01-Dec-17 17:10 40.785566 -111.977967 230 4236ft 0kts
01-Dec-17 17:11 40.785566 -111.977967 230 4236ft 0kts
01-Dec-17 17:12 40.785566 -111.977967 230 4236ft 0kts
01-Dec-17 17:13 40.785566 -111.977966 230 4236ft 0kts
01-Dec-17 17:14 40.785566 -111.977966 230 4236ft 0kts
01-Dec-17 17:15 40.785566 -111.977966 230 4236ft 0kts
01-Dec-17 17:16 40.785566 -111.977966 230 4236ft 0kts
01-Dec-17 17:17 40.785567 -111.977966 230 4236ft 0kts
01-Dec-17 17:18 40.785666 -111.977809 229 4236ft 2kts
01-Dec-17 17:19 40.786088 -111.977256 198 4236ft 2kts
01-Dec-17 17:20 40.786568 -111.977486 130 4236ft 1kts
01-Dec-17 17:21 40.786576 -111.977498 131 4236ft 0kts
01-Dec-17 17:22 40.786576 -111.977498 131 4236ft 0kts
01-Dec-17 17:23 40.786435 -111.977280 129 4236ft 4kts
01-Dec-17 17:24 40.782322 -111.976189 174 4236ft 24kts
01-Dec-17 17:25 40.775155 -111.974862 174 4236ft 24kts
01-Dec-17 17:26 40.775151 -111.973196 9 4236ft 9kts
01-Dec-17 17:27 40.788842 -111.974894 355 4237ft 158kts
01-Dec-17 17:28 40.835957 -111.999491 304 6490ft 205kts
01-Dec-17 17:29 40.858887 -112.077429 288 8789ft 256kts
01-Dec-17 17:30 40.882021 -112.167454 289 10033ft 260kts
01-Dec-17 17:31 40.914142 -112.251266 322 10175ft 272kts
01-Dec-17 17:32 40.977288 -112.316161 320 13109ft 289kts
01-Dec-17 17:33 41.035834 -112.384039 314 15961ft 296kts
01-Dec-17 17:34 41.100128 -112.451410 322 18500ft 307kts
01-Dec-17 17:35 41.169462 -112.510038 318 20687ft 313kts
01-Dec-17 17:36 41.239086 -112.580499 315 22787ft 319kts
01-Dec-17 17:37 41.304583 -112.658955 306 23549ft 327kts
01-Dec-17 17:38 41.368638 -112.752447 306 24548ft 358kts
01-Dec-17 17:39 41.436362 -112.853450 305 25863ft 371kts
01-Dec-17 17:40 41.504684 -112.958033 305 27228ft 379kts
01-Dec-17 17:41 41.574194 -113.064654 305 28463ft 386kts
01-Dec-17 17:42 41.644939 -113.173537 305 29581ft 394kts
01-Dec-17 17:43 41.716669 -113.284333 305 30680ft 398kts
01-Dec-17 17:44 41.788505 -113.395727 305 31848ft 396kts
01-Dec-17 17:45 41.859763 -113.506603 304 33002ft 391kts
01-Dec-17 17:46 41.934939 -113.610290 303 33957ft 385kts
01-Dec-17 17:47 42.001471 -113.718989 303 34965ft 381kts
01-Dec-17 17:48 42.077025 -113.819632 315 35749ft 392kts
01-Dec-17 17:49 42.148122 -113.915398 301 36206ft 361kts
01-Dec-17 17:50 42.209571 -114.021225 301 36212ft 360kts
01-Dec-17 17:51 42.271367 -114.127721 301 36212ft 361kts
01-Dec-17 17:52 42.332837 -114.233933 301 36208ft 361kts
01-Dec-17 17:53 42.394543 -114.340821 301 36203ft 361kts
01-Dec-17 17:54 42.455941 -114.447557 301 36201ft 361kts
01-Dec-17 17:55 42.520285 -114.551841 304 36199ft 363kts
01-Dec-17 17:56 42.586565 -114.654450 304 36206ft 364kts
01-Dec-17 17:57 42.651574 -114.755410 304 36260ft 366kts
01-Dec-17 17:58 42.718639 -114.859922 304 36269ft 366kts
01-Dec-17 17:59 42.785301 -114.964190 304 36254ft 366kts
01-Dec-17 18:00 42.851717 -115.068435 304 36233ft 365kts
01-Dec-17 18:01 42.917904 -115.172690 303 36216ft 364kts
01-Dec-17 18:02 42.983854 -115.276940 303 36193ft 365kts
01-Dec-17 18:03 43.051182 -115.383771 304 36231ft 381kts
01-Dec-17 18:04 43.119131 -115.491941 304 36235ft 394kts
01-Dec-17 18:05 43.190319 -115.605729 304 36235ft 395kts
01-Dec-17 18:06 43.260661 -115.718620 303 36237ft 394kts
01-Dec-17 18:07 43.331484 -115.832720 303 36205ft 395kts
01-Dec-17 18:08 43.402401 -115.947418 303 36197ft 395kts
01-Dec-17 18:09 43.473167 -116.062326 303 36203ft 395kts
01-Dec-17 18:10 43.544165 -116.177683 305 36205ft 397kts
01-Dec-17 18:11 43.626116 -116.281491 310 36206ft 402kts
01-Dec-17 18:12 43.709736 -116.383852 311 36202ft 403kts
01-Dec-17 18:13 43.793241 -116.486424 311 36236ft 403kts
01-Dec-17 18:14 43.876607 -116.589212 311 36236ft 403kts
01-Dec-17 18:15 43.957027 -116.688753 310 36241ft 404kts
01-Dec-17 18:16 44.040351 -116.792287 310 36273ft 405kts
01-Dec-17 18:17 44.123681 -116.896232 310 36267ft 405kts
01-Dec-17 18:18 44.206930 -117.000493 310 36264ft 405kts
01-Dec-17 18:19 44.290340 -117.105370 308 36265ft 404kts
01-Dec-17 18:20 44.373579 -117.210452 308 36256ft 404kts
01-Dec-17 18:21 44.456331 -117.315331 308 36194ft 403kts
01-Dec-17 18:22 44.539074 -117.420628 308 36198ft 403kts
01-Dec-17 18:23 44.621943 -117.526506 308 36201ft 403kts
01-Dec-17 18:24 44.705071 -117.633138 308 36214ft 405kts
01-Dec-17 18:25 44.786987 -117.738650 308 36236ft 405kts
01-Dec-17 18:26 44.869809 -117.845668 308 36223ft 405kts
01-Dec-17 18:27 44.952521 -117.952741 308 36207ft 404kts
01-Dec-17 18:28 45.035469 -118.060587 309 36114ft 412kts
01-Dec-17 18:29 45.119934 -118.170829 309 36167ft 419kts
01-Dec-17 18:30 45.205544 -118.283060 309 36216ft 421kts
01-Dec-17 18:31 45.288826 -118.392726 309 36153ft 405kts
01-Dec-17 18:32 45.371303 -118.501762 309 36155ft 407kts
01-Dec-17 18:33 45.453547 -118.610944 309 36154ft 407kts
01-Dec-17 18:34 45.534791 -118.719255 308 36160ft 407kts
01-Dec-17 18:35 45.617377 -118.829813 308 36164ft 408kts
01-Dec-17 18:36 45.697522 -118.938489 305 34460ft 384kts
01-Dec-17 18:37 45.764175 -119.049498 300 31306ft 359kts
01-Dec-17 18:38 45.826263 -119.154443 300 28050ft 345kts
01-Dec-17 18:39 45.887446 -119.258283 302 24546ft 339kts
01-Dec-17 18:40 45.947032 -119.359919 302 21339ft 327kts
01-Dec-17 18:41 46.004039 -119.457575 302 18287ft 316kts
01-Dec-17 18:42 46.059010 -119.551568 303 15399ft 303kts
01-Dec-17 18:43 46.109564 -119.638465 303 12921ft 285kts
01-Dec-17 18:44 46.150270 -119.708737 301 12121ft 238kts
01-Dec-17 18:45 46.190736 -119.779017 301 12051ft 226kts
01-Dec-17 18:46 46.239891 -119.834963 317 12067ft 235kts
01-Dec-17 18:47 46.271755 -119.903074 292 11189ft 216kts
01-Dec-17 18:48 46.304885 -119.974611 324 10153ft 231kts
01-Dec-17 18:49 46.365744 -120.006640 328 9264ft 227kts
01-Dec-17 18:50 46.420783 -120.041471 336 8413ft 221kts
01-Dec-17 18:51 46.454780 -120.113469 296 7424ft 220kts
01-Dec-17 18:52 46.480327 -120.193390 289 6531ft 217kts
01-Dec-17 18:53 46.501361 -120.274789 290 5639ft 215kts
01-Dec-17 18:54 46.521002 -120.353275 289 4916ft 191kts
01-Dec-17 18:55 46.539643 -120.428033 290 2637ft 199kts
01-Dec-17 18:56 46.555082 -120.489815 289 1706ft 138kts
01-Dec-17 18:57 46.567895 -120.541056 290 1108ft 98kts
01-Dec-17 18:58 46.571013 -120.548713 105 1108ft 2kts
01-Dec-17 18:59 46.570059 -120.544918 111 1108ft 13kts
01-Dec-17 19:00 46.569036 -120.539991 40 1108ft 4kts
01-Dec-17 19:01 46.569521 -120.539400 49 1108ft 0kts

Navigation Log

Ident Type
Flight plan parsing failed, navigation log unavailable